sensor_id;sensor_type;location;lat;lon;timestamp;P1;durP1;ratioP1;P2;durP2;ratioP2
3407;SDS011;1717;50.240;8.406;2023-05-07T00:00:22;3.70;;;2.03;;
3407;SDS011;1717;50.240;8.406;2023-05-07T00:02:50;1.80;;;1.70;;
3407;SDS011;1717;50.240;8.406;2023-05-07T00:05:17;1.50;;;1.40;;
3407;SDS011;1717;50.240;8.406;2023-05-07T00:07:44;2.20;;;1.50;;
3407;SDS011;1717;50.240;8.406;2023-05-07T00:10:11;1.50;;;1.40;;
3407;SDS011;1717;50.240;8.406;2023-05-07T00:12:38;1.63;;;1.53;;
3407;SDS011;1717;50.240;8.406;2023-05-07T00:15:05;1.87;;;1.20;;
3407;SDS011;1717;50.240;8.406;2023-05-07T00:17:34;1.50;;;1.40;;
3407;SDS011;1717;50.240;8.406;2023-05-07T00:20:01;1.33;;;1.17;;
3407;SDS011;1717;50.240;8.406;2023-05-07T00:22:29;1.43;;;1.33;;
3407;SDS011;1717;50.240;8.406;2023-05-07T00:24:57;1.80;;;1.57;;
3407;SDS011;1717;50.240;8.406;2023-05-07T00:27:24;1.50;;;1.40;;
3407;SDS011;1717;50.240;8.406;2023-05-07T00:29:51;2.30;;;1.30;;
3407;SDS011;1717;50.240;8.406;2023-05-07T00:32:18;2.43;;;1.57;;
3407;SDS011;1717;50.240;8.406;2023-05-07T00:34:46;4.50;;;1.40;;
3407;SDS011;1717;50.240;8.406;2023-05-07T00:37:13;2.03;;;1.17;;
3407;SDS011;1717;50.240;8.406;2023-05-07T00:39:39;1.60;;;1.20;;
3407;SDS011;1717;50.240;8.406;2023-05-07T00:42:06;2.17;;;1.83;;
3407;SDS011;1717;50.240;8.406;2023-05-07T00:44:33;1.43;;;1.33;;
3407;SDS011;1717;50.240;8.406;2023-05-07T00:47:01;1.77;;;1.63;;
3407;SDS011;1717;50.240;8.406;2023-05-07T00:49:30;2.33;;;1.43;;
3407;SDS011;1717;50.240;8.406;2023-05-07T00:52:05;1.67;;;1.57;;
3407;SDS011;1717;50.240;8.406;2023-05-07T00:54:32;2.07;;;1.40;;
3407;SDS011;1717;50.240;8.406;2023-05-07T00:57:01;1.83;;;1.73;;
3407;SDS011;1717;50.240;8.406;2023-05-07T00:59:28;3.03;;;2.20;;
3407;SDS011;1717;50.240;8.406;2023-05-07T01:01:56;1.63;;;1.53;;
3407;SDS011;1717;50.240;8.406;2023-05-07T01:04:23;1.40;;;1.30;;
3407;SDS011;1717;50.240;8.406;2023-05-07T01:06:50;3.90;;;2.27;;
3407;SDS011;1717;50.240;8.406;2023-05-07T01:09:19;2.47;;;2.00;;
3407;SDS011;1717;50.240;8.406;2023-05-07T01:11:47;4.10;;;1.70;;
3407;SDS011;1717;50.240;8.406;2023-05-07T01:14:16;2.20;;;1.83;;
3407;SDS011;1717;50.240;8.406;2023-05-07T01:16:44;1.93;;;1.50;;
3407;SDS011;1717;50.240;8.406;2023-05-07T01:19:11;2.50;;;1.80;;
3407;SDS011;1717;50.240;8.406;2023-05-07T01:21:41;2.93;;;1.73;;
3407;SDS011;1717;50.240;8.406;2023-05-07T01:24:13;3.90;;;1.97;;
3407;SDS011;1717;50.240;8.406;2023-05-07T01:26:42;2.47;;;1.87;;
3407;SDS011;1717;50.240;8.406;2023-05-07T01:29:09;1.80;;;1.63;;
3407;SDS011;1717;50.240;8.406;2023-05-07T01:31:36;1.93;;;1.57;;
3407;SDS011;1717;50.240;8.406;2023-05-07T01:34:05;1.77;;;1.67;;
3407;SDS011;1717;50.240;8.406;2023-05-07T01:36:34;2.57;;;1.97;;
3407;SDS011;1717;50.240;8.406;2023-05-07T01:39:03;2.00;;;1.57;;
3407;SDS011;1717;50.240;8.406;2023-05-07T01:41:32;1.70;;;1.60;;
3407;SDS011;1717;50.240;8.406;2023-05-07T01:44:00;3.97;;;1.73;;
3407;SDS011;1717;50.240;8.406;2023-05-07T01:46:29;2.60;;;1.83;;
3407;SDS011;1717;50.240;8.406;2023-05-07T01:48:57;3.20;;;2.10;;
3407;SDS011;1717;50.240;8.406;2023-05-07T01:51:24;1.57;;;1.47;;
3407;SDS011;1717;50.240;8.406;2023-05-07T01:53:52;2.30;;;1.87;;
3407;SDS011;1717;50.240;8.406;2023-05-07T01:56:19;2.03;;;1.83;;
3407;SDS011;1717;50.240;8.406;2023-05-07T01:58:47;3.10;;;1.70;;
3407;SDS011;1717;50.240;8.406;2023-05-07T02:01:16;2.63;;;1.90;;
3407;SDS011;1717;50.240;8.406;2023-05-07T02:03:43;2.93;;;1.83;;
3407;SDS011;1717;50.240;8.406;2023-05-07T02:06:10;5.53;;;2.60;;
3407;SDS011;1717;50.240;8.406;2023-05-07T02:08:37;2.53;;;1.87;;
3407;SDS011;1717;50.240;8.406;2023-05-07T02:11:04;2.20;;;1.93;;
3407;SDS011;1717;50.240;8.406;2023-05-07T02:13:31;1.97;;;1.77;;
3407;SDS011;1717;50.240;8.406;2023-05-07T02:16:01;1.80;;;1.70;;
3407;SDS011;1717;50.240;8.406;2023-05-07T02:18:28;2.03;;;1.83;;
3407;SDS011;1717;50.240;8.406;2023-05-07T02:20:55;1.57;;;1.47;;
3407;SDS011;1717;50.240;8.406;2023-05-07T02:23:22;2.60;;;1.50;;
3407;SDS011;1717;50.240;8.406;2023-05-07T02:25:49;2.90;;;1.80;;
3407;SDS011;1717;50.240;8.406;2023-05-07T02:28:16;1.50;;;1.40;;
3407;SDS011;1717;50.240;8.406;2023-05-07T02:30:43;1.73;;;1.50;;
3407;SDS011;1717;50.240;8.406;2023-05-07T02:33:11;1.60;;;1.50;;
3407;SDS011;1717;50.240;8.406;2023-05-07T02:35:39;1.80;;;1.70;;
3407;SDS011;1717;50.240;8.406;2023-05-07T02:38:05;1.80;;;1.70;;
3407;SDS011;1717;50.240;8.406;2023-05-07T02:40:32;1.60;;;1.50;;
3407;SDS011;1717;50.240;8.406;2023-05-07T02:43:03;2.30;;;2.10;;
3407;SDS011;1717;50.240;8.406;2023-05-07T02:45:30;1.50;;;1.40;;
3407;SDS011;1717;50.240;8.406;2023-05-07T02:47:57;1.90;;;1.80;;
3407;SDS011;1717;50.240;8.406;2023-05-07T02:50:25;1.70;;;1.60;;
3407;SDS011;1717;50.240;8.406;2023-05-07T02:52:52;1.90;;;1.80;;
3407;SDS011;1717;50.240;8.406;2023-05-07T02:55:19;3.30;;;1.77;;
3407;SDS011;1717;50.240;8.406;2023-05-07T02:57:47;1.93;;;1.70;;
3407;SDS011;1717;50.240;8.406;2023-05-07T03:00:14;1.73;;;1.63;;
3407;SDS011;1717;50.240;8.406;2023-05-07T03:02:43;1.67;;;1.57;;
3407;SDS011;1717;50.240;8.406;2023-05-07T03:05:09;1.90;;;1.50;;
3407;SDS011;1717;50.240;8.406;2023-05-07T03:07:38;2.20;;;1.67;;
3407;SDS011;1717;50.240;8.406;2023-05-07T03:10:06;2.00;;;1.80;;
3407;SDS011;1717;50.240;8.406;2023-05-07T03:12:33;3.67;;;1.93;;
3407;SDS011;1717;50.240;8.406;2023-05-07T03:15:00;1.50;;;1.40;;
3407;SDS011;1717;50.240;8.406;2023-05-07T03:17:27;1.37;;;1.30;;
3407;SDS011;1717;50.240;8.406;2023-05-07T03:19:54;1.70;;;1.57;;
3407;SDS011;1717;50.240;8.406;2023-05-07T03:22:21;1.83;;;1.73;;
3407;SDS011;1717;50.240;8.406;2023-05-07T03:24:49;2.13;;;1.30;;
3407;SDS011;1717;50.240;8.406;2023-05-07T03:27:16;2.17;;;1.97;;
3407;SDS011;1717;50.240;8.406;2023-05-07T03:29:42;1.90;;;1.70;;
3407;SDS011;1717;50.240;8.406;2023-05-07T03:32:09;1.67;;;1.57;;
3407;SDS011;1717;50.240;8.406;2023-05-07T03:34:36;2.23;;;2.03;;
3407;SDS011;1717;50.240;8.406;2023-05-07T03:37:03;2.13;;;1.97;;
3407;SDS011;1717;50.240;8.406;2023-05-07T03:39:30;2.53;;;1.73;;
3407;SDS011;1717;50.240;8.406;2023-05-07T03:41:58;2.43;;;2.23;;
3407;SDS011;1717;50.240;8.406;2023-05-07T03:44:26;4.00;;;2.07;;
3407;SDS011;1717;50.240;8.406;2023-05-07T03:46:52;2.53;;;1.73;;
3407;SDS011;1717;50.240;8.406;2023-05-07T03:49:20;2.23;;;1.60;;
3407;SDS011;1717;50.240;8.406;2023-05-07T03:51:47;1.90;;;1.80;;
3407;SDS011;1717;50.240;8.406;2023-05-07T03:54:14;2.50;;;1.83;;
3407;SDS011;1717;50.240;8.406;2023-05-07T03:56:41;2.10;;;1.90;;
3407;SDS011;1717;50.240;8.406;2023-05-07T03:59:09;2.13;;;2.03;;
3407;SDS011;1717;50.240;8.406;2023-05-07T04:01:36;2.43;;;2.23;;
3407;SDS011;1717;50.240;8.406;2023-05-07T04:04:03;2.63;;;2.07;;
3407;SDS011;1717;50.240;8.406;2023-05-07T04:06:29;2.60;;;2.00;;
3407;SDS011;1717;50.240;8.406;2023-05-07T04:08:57;1.43;;;1.33;;
3407;SDS011;1717;50.240;8.406;2023-05-07T04:11:24;1.70;;;1.60;;
3407;SDS011;1717;50.240;8.406;2023-05-07T04:13:51;2.50;;;2.07;;
3407;SDS011;1717;50.240;8.406;2023-05-07T04:16:19;2.47;;;2.03;;
3407;SDS011;1717;50.240;8.406;2023-05-07T04:18:46;2.07;;;1.87;;
3407;SDS011;1717;50.240;8.406;2023-05-07T04:21:13;2.20;;;2.00;;
3407;SDS011;1717;50.240;8.406;2023-05-07T04:23:41;2.30;;;2.20;;
3407;SDS011;1717;50.240;8.406;2023-05-07T04:26:08;1.80;;;1.70;;
3407;SDS011;1717;50.240;8.406;2023-05-07T04:28:35;2.03;;;1.77;;
3407;SDS011;1717;50.240;8.406;2023-05-07T04:31:02;2.37;;;1.87;;
3407;SDS011;1717;50.240;8.406;2023-05-07T04:33:31;2.53;;;2.10;;
3407;SDS011;1717;50.240;8.406;2023-05-07T04:35:58;4.23;;;2.43;;
3407;SDS011;1717;50.240;8.406;2023-05-07T04:38:28;2.63;;;2.43;;
3407;SDS011;1717;50.240;8.406;2023-05-07T04:40:54;2.70;;;2.23;;
3407;SDS011;1717;50.240;8.406;2023-05-07T04:43:22;2.37;;;2.17;;
3407;SDS011;1717;50.240;8.406;2023-05-07T04:45:49;2.93;;;2.53;;
3407;SDS011;1717;50.240;8.406;2023-05-07T04:48:16;4.43;;;2.23;;
3407;SDS011;1717;50.240;8.406;2023-05-07T04:50:45;3.50;;;2.70;;
3407;SDS011;1717;50.240;8.406;2023-05-07T04:53:13;2.33;;;2.13;;
3407;SDS011;1717;50.240;8.406;2023-05-07T04:55:40;2.63;;;2.43;;
3407;SDS011;1717;50.240;8.406;2023-05-07T04:58:07;2.50;;;2.30;;
3407;SDS011;1717;50.240;8.406;2023-05-07T05:00:34;2.40;;;2.20;;
3407;SDS011;1717;50.240;8.406;2023-05-07T05:03:01;2.70;;;2.50;;
3407;SDS011;1717;50.240;8.406;2023-05-07T05:05:28;2.53;;;2.33;;
3407;SDS011;1717;50.240;8.406;2023-05-07T05:07:56;2.00;;;1.90;;
3407;SDS011;1717;50.240;8.406;2023-05-07T05:10:23;2.77;;;1.73;;
3407;SDS011;1717;50.240;8.406;2023-05-07T05:12:50;3.07;;;2.50;;
3407;SDS011;1717;50.240;8.406;2023-05-07T05:15:17;2.30;;;2.13;;
3407;SDS011;1717;50.240;8.406;2023-05-07T05:17:44;2.40;;;2.20;;
3407;SDS011;1717;50.240;8.406;2023-05-07T05:20:11;3.77;;;2.40;;
3407;SDS011;1717;50.240;8.406;2023-05-07T05:22:39;2.60;;;2.40;;
3407;SDS011;1717;50.240;8.406;2023-05-07T05:25:08;2.80;;;2.47;;
3407;SDS011;1717;50.240;8.406;2023-05-07T05:27:35;2.73;;;2.37;;
3407;SDS011;1717;50.240;8.406;2023-05-07T05:30:01;2.90;;;2.33;;
3407;SDS011;1717;50.240;8.406;2023-05-07T05:32:29;4.30;;;2.17;;
3407;SDS011;1717;50.240;8.406;2023-05-07T05:34:55;2.90;;;2.70;;
3407;SDS011;1717;50.240;8.406;2023-05-07T05:37:22;2.60;;;2.10;;
3407;SDS011;1717;50.240;8.406;2023-05-07T05:39:49;2.33;;;2.10;;
3407;SDS011;1717;50.240;8.406;2023-05-07T05:42:17;4.27;;;2.57;;
3407;SDS011;1717;50.240;8.406;2023-05-07T05:44:45;2.67;;;2.30;;
3407;SDS011;1717;50.240;8.406;2023-05-07T05:47:12;2.30;;;2.10;;
3407;SDS011;1717;50.240;8.406;2023-05-07T05:49:38;2.50;;;2.30;;
3407;SDS011;1717;50.240;8.406;2023-05-07T05:52:05;2.30;;;2.17;;
3407;SDS011;1717;50.240;8.406;2023-05-07T05:54:32;2.37;;;2.27;;
3407;SDS011;1717;50.240;8.406;2023-05-07T05:56:59;2.83;;;2.20;;
3407;SDS011;1717;50.240;8.406;2023-05-07T05:59:30;2.20;;;1.90;;
3407;SDS011;1717;50.240;8.406;2023-05-07T06:01:57;4.40;;;2.17;;
3407;SDS011;1717;50.240;8.406;2023-05-07T06:04:24;2.53;;;2.23;;
3407;SDS011;1717;50.240;8.406;2023-05-07T06:06:50;2.73;;;2.47;;
3407;SDS011;1717;50.240;8.406;2023-05-07T06:09:17;2.53;;;2.33;;
3407;SDS011;1717;50.240;8.406;2023-05-07T06:11:45;3.03;;;2.20;;
3407;SDS011;1717;50.240;8.406;2023-05-07T06:14:12;4.60;;;2.80;;
3407;SDS011;1717;50.240;8.406;2023-05-07T06:16:40;2.43;;;2.23;;
3407;SDS011;1717;50.240;8.406;2023-05-07T06:19:07;4.70;;;2.50;;
3407;SDS011;1717;50.240;8.406;2023-05-07T06:21:33;2.47;;;2.27;;
3407;SDS011;1717;50.240;8.406;2023-05-07T06:24:00;2.47;;;2.27;;
3407;SDS011;1717;50.240;8.406;2023-05-07T06:26:27;5.00;;;2.00;;
3407;SDS011;1717;50.240;8.406;2023-05-07T06:28:54;4.70;;;2.27;;
3407;SDS011;1717;50.240;8.406;2023-05-07T06:31:21;3.03;;;2.53;;
3407;SDS011;1717;50.240;8.406;2023-05-07T06:33:49;2.70;;;2.50;;
3407;SDS011;1717;50.240;8.406;2023-05-07T06:36:16;2.27;;;2.07;;
3407;SDS011;1717;50.240;8.406;2023-05-07T06:38:43;2.80;;;2.23;;
3407;SDS011;1717;50.240;8.406;2023-05-07T06:41:09;2.93;;;2.73;;
3407;SDS011;1717;50.240;8.406;2023-05-07T06:43:36;1.97;;;1.87;;
3407;SDS011;1717;50.240;8.406;2023-05-07T06:46:03;2.17;;;2.00;;
3407;SDS011;1717;50.240;8.406;2023-05-07T06:48:30;2.20;;;2.00;;
3407;SDS011;1717;50.240;8.406;2023-05-07T06:50:58;2.03;;;1.83;;
3407;SDS011;1717;50.240;8.406;2023-05-07T06:53:25;2.50;;;2.30;;
3407;SDS011;1717;50.240;8.406;2023-05-07T06:55:53;2.60;;;2.40;;
3407;SDS011;1717;50.240;8.406;2023-05-07T06:58:20;2.53;;;2.33;;
3407;SDS011;1717;50.240;8.406;2023-05-07T07:00:46;2.67;;;2.43;;
3407;SDS011;1717;50.240;8.406;2023-05-07T07:03:13;2.13;;;1.93;;
3407;SDS011;1717;50.240;8.406;2023-05-07T07:05:40;2.57;;;2.37;;
3407;SDS011;1717;50.240;8.406;2023-05-07T07:08:09;2.90;;;2.70;;
3407;SDS011;1717;50.240;8.406;2023-05-07T07:10:36;3.07;;;1.90;;
3407;SDS011;1717;50.240;8.406;2023-05-07T07:13:03;2.63;;;2.40;;
3407;SDS011;1717;50.240;8.406;2023-05-07T07:15:30;3.53;;;2.30;;
3407;SDS011;1717;50.240;8.406;2023-05-07T07:17:57;2.43;;;2.23;;
3407;SDS011;1717;50.240;8.406;2023-05-07T07:20:23;2.60;;;2.13;;
3407;SDS011;1717;50.240;8.406;2023-05-07T07:22:50;2.50;;;2.30;;
3407;SDS011;1717;50.240;8.406;2023-05-07T07:25:18;2.20;;;2.10;;
3407;SDS011;1717;50.240;8.406;2023-05-07T07:27:45;2.90;;;2.20;;
3407;SDS011;1717;50.240;8.406;2023-05-07T07:30:12;2.30;;;2.20;;
3407;SDS011;1717;50.240;8.406;2023-05-07T07:32:39;2.57;;;2.37;;
3407;SDS011;1717;50.240;8.406;2023-05-07T07:35:06;2.10;;;2.00;;
3407;SDS011;1717;50.240;8.406;2023-05-07T07:37:34;1.93;;;1.83;;
3407;SDS011;1717;50.240;8.406;2023-05-07T07:40:01;2.97;;;2.60;;
3407;SDS011;1717;50.240;8.406;2023-05-07T07:42:29;3.17;;;2.97;;
3407;SDS011;1717;50.240;8.406;2023-05-07T07:44:56;2.90;;;2.70;;
3407;SDS011;1717;50.240;8.406;2023-05-07T07:47:23;2.60;;;2.40;;
3407;SDS011;1717;50.240;8.406;2023-05-07T07:49:50;5.10;;;2.63;;
3407;SDS011;1717;50.240;8.406;2023-05-07T07:52:17;3.93;;;2.70;;
3407;SDS011;1717;50.240;8.406;2023-05-07T07:54:44;3.40;;;3.10;;
3407;SDS011;1717;50.240;8.406;2023-05-07T07:57:11;3.00;;;2.80;;
3407;SDS011;1717;50.240;8.406;2023-05-07T07:59:39;2.63;;;2.20;;
3407;SDS011;1717;50.240;8.406;2023-05-07T08:02:08;2.60;;;2.40;;
3407;SDS011;1717;50.240;8.406;2023-05-07T08:04:35;2.90;;;2.70;;
3407;SDS011;1717;50.240;8.406;2023-05-07T08:07:02;2.40;;;2.30;;
3407;SDS011;1717;50.240;8.406;2023-05-07T08:09:29;4.30;;;2.50;;
3407;SDS011;1717;50.240;8.406;2023-05-07T08:11:56;4.33;;;2.20;;
3407;SDS011;1717;50.240;8.406;2023-05-07T08:14:23;2.13;;;2.03;;
3407;SDS011;1717;50.240;8.406;2023-05-07T08:16:51;3.13;;;2.77;;
3407;SDS011;1717;50.240;8.406;2023-05-07T08:19:18;6.43;;;2.80;;
3407;SDS011;1717;50.240;8.406;2023-05-07T08:21:46;2.73;;;2.53;;
3407;SDS011;1717;50.240;8.406;2023-05-07T08:24:14;4.60;;;2.20;;
3407;SDS011;1717;50.240;8.406;2023-05-07T08:26:41;2.60;;;2.40;;
3407;SDS011;1717;50.240;8.406;2023-05-07T08:29:08;3.23;;;2.93;;
3407;SDS011;1717;50.240;8.406;2023-05-07T08:31:34;2.73;;;2.53;;
3407;SDS011;1717;50.240;8.406;2023-05-07T08:34:03;2.90;;;2.70;;
3407;SDS011;1717;50.240;8.406;2023-05-07T08:36:30;3.07;;;2.67;;
3407;SDS011;1717;50.240;8.406;2023-05-07T08:38:57;4.03;;;3.00;;
3407;SDS011;1717;50.240;8.406;2023-05-07T08:41:24;2.70;;;2.50;;
3407;SDS011;1717;50.240;8.406;2023-05-07T08:43:51;3.17;;;2.97;;
3407;SDS011;1717;50.240;8.406;2023-05-07T08:46:18;3.17;;;2.97;;
3407;SDS011;1717;50.240;8.406;2023-05-07T08:48:47;2.53;;;2.33;;
3407;SDS011;1717;50.240;8.406;2023-05-07T08:51:17;2.80;;;2.57;;
3407;SDS011;1717;50.240;8.406;2023-05-07T08:53:46;4.70;;;2.63;;
3407;SDS011;1717;50.240;8.406;2023-05-07T08:56:14;3.30;;;3.00;;
3407;SDS011;1717;50.240;8.406;2023-05-07T08:58:42;2.20;;;2.00;;
3407;SDS011;1717;50.240;8.406;2023-05-07T09:01:13;3.50;;;3.20;;
3407;SDS011;1717;50.240;8.406;2023-05-07T09:03:40;2.97;;;2.77;;
3407;SDS011;1717;50.240;8.406;2023-05-07T09:06:10;2.80;;;2.60;;
3407;SDS011;1717;50.240;8.406;2023-05-07T09:08:38;2.93;;;2.67;;
3407;SDS011;1717;50.240;8.406;2023-05-07T09:11:05;6.03;;;3.20;;
3407;SDS011;1717;50.240;8.406;2023-05-07T09:13:33;2.37;;;2.20;;
3407;SDS011;1717;50.240;8.406;2023-05-07T09:16:08;3.13;;;2.83;;
3407;SDS011;1717;50.240;8.406;2023-05-07T09:18:40;2.83;;;2.50;;
3407;SDS011;1717;50.240;8.406;2023-05-07T09:21:09;3.07;;;2.67;;
3407;SDS011;1717;50.240;8.406;2023-05-07T09:23:38;2.77;;;2.57;;
3407;SDS011;1717;50.240;8.406;2023-05-07T09:26:06;4.00;;;2.83;;
3407;SDS011;1717;50.240;8.406;2023-05-07T09:28:38;3.40;;;3.20;;
3407;SDS011;1717;50.240;8.406;2023-05-07T09:31:06;3.43;;;2.70;;
3407;SDS011;1717;50.240;8.406;2023-05-07T09:33:33;3.00;;;2.80;;
3407;SDS011;1717;50.240;8.406;2023-05-07T09:36:02;4.33;;;2.93;;
3407;SDS011;1717;50.240;8.406;2023-05-07T09:38:30;3.13;;;2.93;;
3407;SDS011;1717;50.240;8.406;2023-05-07T09:41:05;3.60;;;2.87;;
3407;SDS011;1717;50.240;8.406;2023-05-07T09:43:34;2.90;;;2.70;;
3407;SDS011;1717;50.240;8.406;2023-05-07T09:46:02;3.87;;;3.50;;
3407;SDS011;1717;50.240;8.406;2023-05-07T09:48:31;3.60;;;3.00;;
3407;SDS011;1717;50.240;8.406;2023-05-07T09:51:01;3.07;;;2.80;;
3407;SDS011;1717;50.240;8.406;2023-05-07T09:53:30;3.47;;;3.17;;
3407;SDS011;1717;50.240;8.406;2023-05-07T09:55:59;4.07;;;3.00;;
3407;SDS011;1717;50.240;8.406;2023-05-07T09:58:28;2.90;;;2.67;;
3407;SDS011;1717;50.240;8.406;2023-05-07T10:00:57;2.77;;;2.57;;
3407;SDS011;1717;50.240;8.406;2023-05-07T10:03:24;2.80;;;2.60;;
3407;SDS011;1717;50.240;8.406;2023-05-07T10:05:55;5.17;;;2.73;;
3407;SDS011;1717;50.240;8.406;2023-05-07T10:08:24;2.50;;;2.30;;
3407;SDS011;1717;50.240;8.406;2023-05-07T10:10:51;3.50;;;2.67;;
3407;SDS011;1717;50.240;8.406;2023-05-07T10:13:19;2.90;;;2.50;;
3407;SDS011;1717;50.240;8.406;2023-05-07T10:15:48;2.40;;;2.20;;
3407;SDS011;1717;50.240;8.406;2023-05-07T10:18:16;3.63;;;2.60;;
3407;SDS011;1717;50.240;8.406;2023-05-07T10:20:44;2.90;;;2.60;;
3407;SDS011;1717;50.240;8.406;2023-05-07T10:23:13;2.70;;;2.50;;
3407;SDS011;1717;50.240;8.406;2023-05-07T10:25:44;2.70;;;2.50;;
3407;SDS011;1717;50.240;8.406;2023-05-07T10:28:11;4.67;;;2.40;;
3407;SDS011;1717;50.240;8.406;2023-05-07T10:30:43;3.30;;;2.57;;
3407;SDS011;1717;50.240;8.406;2023-05-07T10:33:21;3.00;;;2.80;;
3407;SDS011;1717;50.240;8.406;2023-05-07T10:35:52;2.70;;;2.50;;
3407;SDS011;1717;50.240;8.406;2023-05-07T10:38:24;3.20;;;2.23;;
3407;SDS011;1717;50.240;8.406;2023-05-07T10:40:51;4.43;;;2.30;;
3407;SDS011;1717;50.240;8.406;2023-05-07T10:43:18;3.10;;;2.33;;
3407;SDS011;1717;50.240;8.406;2023-05-07T10:51:39;2.43;;;2.23;;
3407;SDS011;1717;50.240;8.406;2023-05-07T10:54:18;4.00;;;3.23;;
3407;SDS011;1717;50.240;8.406;2023-05-07T10:56:47;3.50;;;3.20;;
3407;SDS011;1717;50.240;8.406;2023-05-07T10:59:31;3.60;;;2.90;;
3407;SDS011;1717;50.240;8.406;2023-05-07T11:02:06;3.70;;;2.93;;
3407;SDS011;1717;50.240;8.406;2023-05-07T11:04:36;4.53;;;2.43;;
3407;SDS011;1717;50.240;8.406;2023-05-07T11:07:25;2.60;;;2.40;;
3407;SDS011;1717;50.240;8.406;2023-05-07T11:09:54;3.20;;;2.77;;
3407;SDS011;1717;50.240;8.406;2023-05-07T11:15:33;3.73;;;2.37;;
3407;SDS011;1717;50.240;8.406;2023-05-07T11:18:10;4.57;;;2.43;;
3407;SDS011;1717;50.240;8.406;2023-05-07T11:20:46;6.50;;;3.20;;
3407;SDS011;1717;50.240;8.406;2023-05-07T11:26:23;4.13;;;2.10;;
3407;SDS011;1717;50.240;8.406;2023-05-07T11:28:51;3.70;;;2.53;;
3407;SDS011;1717;50.240;8.406;2023-05-07T11:31:23;3.03;;;2.80;;
3407;SDS011;1717;50.240;8.406;2023-05-07T11:33:52;2.70;;;2.50;;
3407;SDS011;1717;50.240;8.406;2023-05-07T11:36:21;2.80;;;2.60;;
3407;SDS011;1717;50.240;8.406;2023-05-07T11:38:50;3.80;;;3.50;;
3407;SDS011;1717;50.240;8.406;2023-05-07T11:41:16;4.10;;;3.20;;
3407;SDS011;1717;50.240;8.406;2023-05-07T11:43:55;3.50;;;3.20;;
3407;SDS011;1717;50.240;8.406;2023-05-07T11:46:23;3.77;;;3.47;;
3407;SDS011;1717;50.240;8.406;2023-05-07T11:48:50;3.47;;;3.17;;
3407;SDS011;1717;50.240;8.406;2023-05-07T11:51:22;2.80;;;2.60;;
3407;SDS011;1717;50.240;8.406;2023-05-07T11:53:51;2.90;;;2.67;;
3407;SDS011;1717;50.240;8.406;2023-05-07T11:56:19;2.87;;;2.67;;
3407;SDS011;1717;50.240;8.406;2023-05-07T11:58:46;3.70;;;3.33;;
3407;SDS011;1717;50.240;8.406;2023-05-07T12:01:14;5.53;;;3.30;;
3407;SDS011;1717;50.240;8.406;2023-05-07T12:03:43;3.77;;;3.30;;
3407;SDS011;1717;50.240;8.406;2023-05-07T12:06:11;3.50;;;3.13;;
3407;SDS011;1717;50.240;8.406;2023-05-07T12:08:41;4.20;;;3.27;;
3407;SDS011;1717;50.240;8.406;2023-05-07T12:11:09;3.30;;;3.00;;
3407;SDS011;1717;50.240;8.406;2023-05-07T12:13:38;3.63;;;3.33;;
3407;SDS011;1717;50.240;8.406;2023-05-07T12:16:05;3.50;;;3.20;;
3407;SDS011;1717;50.240;8.406;2023-05-07T12:18:34;4.60;;;3.97;;
3407;SDS011;1717;50.240;8.406;2023-05-07T12:21:02;4.27;;;3.90;;
3407;SDS011;1717;50.240;8.406;2023-05-07T12:23:31;4.27;;;3.97;;
3407;SDS011;1717;50.240;8.406;2023-05-07T12:26:00;4.87;;;4.00;;
3407;SDS011;1717;50.240;8.406;2023-05-07T12:28:27;3.77;;;3.47;;
3407;SDS011;1717;50.240;8.406;2023-05-07T12:30:55;4.20;;;3.70;;
3407;SDS011;1717;50.240;8.406;2023-05-07T12:33:24;4.13;;;3.73;;
3407;SDS011;1717;50.240;8.406;2023-05-07T12:35:53;4.87;;;4.47;;
3407;SDS011;1717;50.240;8.406;2023-05-07T12:38:21;4.37;;;3.97;;
3407;SDS011;1717;50.240;8.406;2023-05-07T12:40:48;3.97;;;3.67;;
3407;SDS011;1717;50.240;8.406;2023-05-07T12:43:18;4.63;;;4.23;;
3407;SDS011;1717;50.240;8.406;2023-05-07T12:45:46;6.03;;;3.50;;
3407;SDS011;1717;50.240;8.406;2023-05-07T12:48:15;4.30;;;3.90;;
3407;SDS011;1717;50.240;8.406;2023-05-07T12:50:42;3.53;;;3.33;;
3407;SDS011;1717;50.240;8.406;2023-05-07T12:53:10;5.73;;;3.63;;
3407;SDS011;1717;50.240;8.406;2023-05-07T12:55:41;3.97;;;3.67;;
3407;SDS011;1717;50.240;8.406;2023-05-07T12:58:14;4.53;;;3.80;;
3407;SDS011;1717;50.240;8.406;2023-05-07T13:00:47;4.30;;;4.00;;
3407;SDS011;1717;50.240;8.406;2023-05-07T13:03:20;4.67;;;4.20;;
3407;SDS011;1717;50.240;8.406;2023-05-07T13:05:49;8.43;;;3.50;;
3407;SDS011;1717;50.240;8.406;2023-05-07T13:08:29;4.77;;;4.37;;
3407;SDS011;1717;50.240;8.406;2023-05-07T13:10:58;4.77;;;4.47;;
3407;SDS011;1717;50.240;8.406;2023-05-07T13:13:29;5.13;;;4.73;;
3407;SDS011;1717;50.240;8.406;2023-05-07T13:15:56;6.53;;;4.47;;
3407;SDS011;1717;50.240;8.406;2023-05-07T13:18:24;3.60;;;3.40;;
3407;SDS011;1717;50.240;8.406;2023-05-07T13:20:51;4.70;;;4.40;;
3407;SDS011;1717;50.240;8.406;2023-05-07T13:23:18;5.60;;;5.10;;
3407;SDS011;1717;50.240;8.406;2023-05-07T13:25:45;5.13;;;4.83;;
3407;SDS011;1717;50.240;8.406;2023-05-07T13:28:12;5.20;;;4.73;;
3407;SDS011;1717;50.240;8.406;2023-05-07T13:30:40;5.27;;;4.77;;
3407;SDS011;1717;50.240;8.406;2023-05-07T13:33:07;5.07;;;4.67;;
3407;SDS011;1717;50.240;8.406;2023-05-07T13:35:34;5.07;;;4.67;;
3407;SDS011;1717;50.240;8.406;2023-05-07T13:38:01;5.70;;;5.27;;
3407;SDS011;1717;50.240;8.406;2023-05-07T13:40:28;5.30;;;4.90;;
3407;SDS011;1717;50.240;8.406;2023-05-07T13:42:56;5.47;;;5.07;;
3407;SDS011;1717;50.240;8.406;2023-05-07T13:45:23;5.23;;;4.83;;
3407;SDS011;1717;50.240;8.406;2023-05-07T13:47:53;5.70;;;5.27;;
3407;SDS011;1717;50.240;8.406;2023-05-07T13:50:20;5.60;;;5.10;;
3407;SDS011;1717;50.240;8.406;2023-05-07T13:52:47;5.20;;;4.83;;
3407;SDS011;1717;50.240;8.406;2023-05-07T13:55:15;4.43;;;4.10;;
3407;SDS011;1717;50.240;8.406;2023-05-07T13:57:42;5.90;;;5.50;;
3407;SDS011;1717;50.240;8.406;2023-05-07T14:00:10;6.00;;;5.50;;
3407;SDS011;1717;50.240;8.406;2023-05-07T14:02:39;5.47;;;5.00;;
3407;SDS011;1717;50.240;8.406;2023-05-07T14:05:08;6.10;;;5.60;;
3407;SDS011;1717;50.240;8.406;2023-05-07T14:07:35;6.57;;;5.03;;
3407;SDS011;1717;50.240;8.406;2023-05-07T14:10:02;6.30;;;5.80;;
3407;SDS011;1717;50.240;8.406;2023-05-07T14:12:29;7.47;;;6.87;;
3407;SDS011;1717;50.240;8.406;2023-05-07T14:14:57;5.93;;;5.43;;
3407;SDS011;1717;50.240;8.406;2023-05-07T14:17:24;5.73;;;5.33;;
3407;SDS011;1717;50.240;8.406;2023-05-07T14:19:52;5.40;;;4.97;;
3407;SDS011;1717;50.240;8.406;2023-05-07T14:22:21;6.30;;;5.80;;
3407;SDS011;1717;50.240;8.406;2023-05-07T14:24:48;5.73;;;5.33;;
3407;SDS011;1717;50.240;8.406;2023-05-07T14:27:15;5.23;;;4.73;;
3407;SDS011;1717;50.240;8.406;2023-05-07T14:29:42;5.10;;;4.80;;
3407;SDS011;1717;50.240;8.406;2023-05-07T14:32:10;5.90;;;5.40;;
3407;SDS011;1717;50.240;8.406;2023-05-07T14:34:38;5.77;;;5.27;;
3407;SDS011;1717;50.240;8.406;2023-05-07T14:37:05;5.67;;;5.27;;
3407;SDS011;1717;50.240;8.406;2023-05-07T14:39:33;6.00;;;5.50;;
3407;SDS011;1717;50.240;8.406;2023-05-07T14:42:00;5.70;;;5.30;;
3407;SDS011;1717;50.240;8.406;2023-05-07T14:44:26;4.13;;;3.73;;
3407;SDS011;1717;50.240;8.406;2023-05-07T14:46:53;5.10;;;4.30;;
3407;SDS011;1717;50.240;8.406;2023-05-07T14:49:20;5.47;;;4.30;;
3407;SDS011;1717;50.240;8.406;2023-05-07T14:51:47;5.07;;;4.77;;
3407;SDS011;1717;50.240;8.406;2023-05-07T14:54:14;5.23;;;4.83;;
3407;SDS011;1717;50.240;8.406;2023-05-07T14:56:42;10.73;;;5.30;;
3407;SDS011;1717;50.240;8.406;2023-05-07T14:59:09;5.30;;;4.90;;
3407;SDS011;1717;50.240;8.406;2023-05-07T15:01:36;5.90;;;5.20;;
3407;SDS011;1717;50.240;8.406;2023-05-07T15:04:05;4.90;;;4.50;;
3407;SDS011;1717;50.240;8.406;2023-05-07T15:06:32;5.27;;;4.80;;
3407;SDS011;1717;50.240;8.406;2023-05-07T15:08:59;4.40;;;4.10;;
3407;SDS011;1717;50.240;8.406;2023-05-07T15:11:25;6.47;;;5.97;;
3407;SDS011;1717;50.240;8.406;2023-05-07T15:13:54;4.47;;;4.17;;
3407;SDS011;1717;50.240;8.406;2023-05-07T15:16:20;6.23;;;5.70;;
3407;SDS011;1717;50.240;8.406;2023-05-07T15:18:48;5.50;;;5.00;;
3407;SDS011;1717;50.240;8.406;2023-05-07T15:21:14;5.37;;;4.87;;
3407;SDS011;1717;50.240;8.406;2023-05-07T15:23:41;5.00;;;4.63;;
3407;SDS011;1717;50.240;8.406;2023-05-07T15:26:09;5.60;;;5.10;;
3407;SDS011;1717;50.240;8.406;2023-05-07T15:28:36;7.80;;;5.73;;
3407;SDS011;1717;50.240;8.406;2023-05-07T15:31:05;6.40;;;5.90;;